sensor_id;sensor_type;location;lat;lon;timestamp;temperature;humidity
7129;DHT22;3606;52.930;8.644;2024-01-25T00:02:16;8.00;1.00
7129;DHT22;3606;52.930;8.644;2024-01-25T00:04:41;8.00;1.00
7129;DHT22;3606;52.930;8.644;2024-01-25T00:07:10;7.90;84.50
7129;DHT22;3606;52.930;8.644;2024-01-25T00:09:36;7.90;99.90
7129;DHT22;3606;52.930;8.644;2024-01-25T00:12:01;7.90;95.50
7129;DHT22;3606;52.930;8.644;2024-01-25T00:14:27;8.00;1.00
7129;DHT22;3606;52.930;8.644;2024-01-25T00:16:53;8.00;1.00
7129;DHT22;3606;52.930;8.644;2024-01-25T00:19:18;8.10;1.00
7129;DHT22;3606;52.930;8.644;2024-01-25T00:21:44;8.10;1.00
7129;DHT22;3606;52.930;8.644;2024-01-25T00:24:13;8.10;1.00
7129;DHT22;3606;52.930;8.644;2024-01-25T00:26:39;8.10;99.90
7129;DHT22;3606;52.930;8.644;2024-01-25T00:29:04;8.10;1.00
7129;DHT22;3606;52.930;8.644;2024-01-25T00:31:30;8.00;1.00
7129;DHT22;3606;52.930;8.644;2024-01-25T00:33:57;8.00;1.00
7129;DHT22;3606;52.930;8.644;2024-01-25T00:36:23;8.00;1.00
7129;DHT22;3606;52.930;8.644;2024-01-25T00:38:49;7.90;1.00
7129;DHT22;3606;52.930;8.644;2024-01-25T00:41:18;7.90;1.00
7129;DHT22;3606;52.930;8.644;2024-01-25T00:43:45;7.90;1.00
7129;DHT22;3606;52.930;8.644;2024-01-25T00:46:11;7.90;1.00
7129;DHT22;3606;52.930;8.644;2024-01-25T00:48:37;8.00;1.00
7129;DHT22;3606;52.930;8.644;2024-01-25T00:51:11;7.90;1.00
7129;DHT22;3606;52.930;8.644;2024-01-25T00:53:39;8.00;1.00
7129;DHT22;3606;52.930;8.644;2024-01-25T00:56:05;8.00;99.90
7129;DHT22;3606;52.930;8.644;2024-01-25T00:58:31;8.00;1.00
7129;DHT22;3606;52.930;8.644;2024-01-25T01:00:57;8.00;99.90
7129;DHT22;3606;52.930;8.644;2024-01-25T01:03:23;8.00;1.00
7129;DHT22;3606;52.930;8.644;2024-01-25T01:05:49;7.90;1.00
7129;DHT22;3606;52.930;8.644;2024-01-25T01:08:15;7.90;1.00
7129;DHT22;3606;52.930;8.644;2024-01-25T01:10:40;7.80;1.00
7129;DHT22;3606;52.930;8.644;2024-01-25T01:13:06;7.80;99.90
7129;DHT22;3606;52.930;8.644;2024-01-25T01:15:32;7.70;99.90
7129;DHT22;3606;52.930;8.644;2024-01-25T01:17:57;7.60;1.00
7129;DHT22;3606;52.930;8.644;2024-01-25T01:20:23;7.60;1.00
7129;DHT22;3606;52.930;8.644;2024-01-25T01:22:49;7.70;1.00
7129;DHT22;3606;52.930;8.644;2024-01-25T01:25:16;7.70;1.00
7129;DHT22;3606;52.930;8.644;2024-01-25T01:27:41;7.80;99.90
7129;DHT22;3606;52.930;8.644;2024-01-25T01:30:07;7.80;1.00
7129;DHT22;3606;52.930;8.644;2024-01-25T01:32:33;7.80;1.00
7129;DHT22;3606;52.930;8.644;2024-01-25T01:34:59;7.80;1.00
7129;DHT22;3606;52.930;8.644;2024-01-25T01:37:25;7.90;99.90
7129;DHT22;3606;52.930;8.644;2024-01-25T01:39:50;8.00;99.90
7129;DHT22;3606;52.930;8.644;2024-01-25T01:42:17;8.00;49.00
7129;DHT22;3606;52.930;8.644;2024-01-25T01:44:43;8.00;99.90
7129;DHT22;3606;52.930;8.644;2024-01-25T01:47:09;8.10;1.00
7129;DHT22;3606;52.930;8.644;2024-01-25T01:49:35;8.10;1.00
7129;DHT22;3606;52.930;8.644;2024-01-25T01:52:01;8.20;1.00
7129;DHT22;3606;52.930;8.644;2024-01-25T01:54:27;8.20;1.00
7129;DHT22;3606;52.930;8.644;2024-01-25T01:56:53;8.10;1.00
7129;DHT22;3606;52.930;8.644;2024-01-25T01:59:20;8.10;1.00
7129;DHT22;3606;52.930;8.644;2024-01-25T02:01:46;8.10;1.00
7129;DHT22;3606;52.930;8.644;2024-01-25T02:04:11;8.10;26.20
7129;DHT22;3606;52.930;8.644;2024-01-25T02:06:37;8.10;99.90
7129;DHT22;3606;52.930;8.644;2024-01-25T02:09:03;8.10;99.90
7129;DHT22;3606;52.930;8.644;2024-01-25T02:11:30;8.10;99.90
7129;DHT22;3606;52.930;8.644;2024-01-25T02:13:56;8.00;99.90
7129;DHT22;3606;52.930;8.644;2024-01-25T02:16:22;7.90;99.90
7129;DHT22;3606;52.930;8.644;2024-01-25T02:18:47;7.90;1.00
7129;DHT22;3606;52.930;8.644;2024-01-25T02:21:13;8.00;1.00
7129;DHT22;3606;52.930;8.644;2024-01-25T02:23:39;7.90;44.40
7129;DHT22;3606;52.930;8.644;2024-01-25T02:26:05;7.90;99.90
7129;DHT22;3606;52.930;8.644;2024-01-25T02:28:30;7.90;99.90
7129;DHT22;3606;52.930;8.644;2024-01-25T02:30:56;7.90;1.00
7129;DHT22;3606;52.930;8.644;2024-01-25T02:33:22;7.90;1.00
7129;DHT22;3606;52.930;8.644;2024-01-25T02:35:47;7.90;1.00
7129;DHT22;3606;52.930;8.644;2024-01-25T02:38:13;7.90;1.00
7129;DHT22;3606;52.930;8.644;2024-01-25T02:40:39;7.90;1.00
7129;DHT22;3606;52.930;8.644;2024-01-25T02:43:05;7.90;1.00
7129;DHT22;3606;52.930;8.644;2024-01-25T02:45:30;7.90;1.00
7129;DHT22;3606;52.930;8.644;2024-01-25T02:47:56;7.90;1.00
7129;DHT22;3606;52.930;8.644;2024-01-25T02:50:22;8.00;99.90
7129;DHT22;3606;52.930;8.644;2024-01-25T02:52:47;7.90;1.00
7129;DHT22;3606;52.930;8.644;2024-01-25T02:55:13;7.80;93.00
7129;DHT22;3606;52.930;8.644;2024-01-25T02:57:39;7.80;1.00
7129;DHT22;3606;52.930;8.644;2024-01-25T03:00:05;7.80;99.90
7129;DHT22;3606;52.930;8.644;2024-01-25T03:02:30;7.80;16.40
7129;DHT22;3606;52.930;8.644;2024-01-25T03:04:57;7.80;25.10
7129;DHT22;3606;52.930;8.644;2024-01-25T03:07:22;7.80;99.90
7129;DHT22;3606;52.930;8.644;2024-01-25T03:09:48;7.80;99.90
7129;DHT22;3606;52.930;8.644;2024-01-25T03:12:14;7.80;1.00
7129;DHT22;3606;52.930;8.644;2024-01-25T03:14:39;7.70;1.00
7129;DHT22;3606;52.930;8.644;2024-01-25T03:17:05;7.70;98.40
7129;DHT22;3606;52.930;8.644;2024-01-25T03:19:30;7.70;1.00
7129;DHT22;3606;52.930;8.644;2024-01-25T03:21:56;7.70;1.00
7129;DHT22;3606;52.930;8.644;2024-01-25T03:24:25;7.60;1.00
7129;DHT22;3606;52.930;8.644;2024-01-25T03:26:50;7.60;91.20
7129;DHT22;3606;52.930;8.644;2024-01-25T03:29:16;7.60;1.00
7129;DHT22;3606;52.930;8.644;2024-01-25T03:31:44;7.60;1.00
7129;DHT22;3606;52.930;8.644;2024-01-25T03:34:10;7.50;1.00
7129;DHT22;3606;52.930;8.644;2024-01-25T03:36:37;7.60;1.00
7129;DHT22;3606;52.930;8.644;2024-01-25T03:39:07;7.50;1.00
7129;DHT22;3606;52.930;8.644;2024-01-25T03:41:35;7.50;99.90
7129;DHT22;3606;52.930;8.644;2024-01-25T03:44:01;7.50;99.90
7129;DHT22;3606;52.930;8.644;2024-01-25T03:46:26;7.40;1.00
7129;DHT22;3606;52.930;8.644;2024-01-25T03:48:52;7.40;95.90
7129;DHT22;3606;52.930;8.644;2024-01-25T03:51:19;7.40;1.00
7129;DHT22;3606;52.930;8.644;2024-01-25T03:53:45;7.40;1.00
7129;DHT22;3606;52.930;8.644;2024-01-25T03:56:14;7.50;1.00
7129;DHT22;3606;52.930;8.644;2024-01-25T03:58:42;7.50;1.00
7129;DHT22;3606;52.930;8.644;2024-01-25T04:01:08;7.40;99.90
7129;DHT22;3606;52.930;8.644;2024-01-25T04:03:34;7.40;99.90
7129;DHT22;3606;52.930;8.644;2024-01-25T04:06:00;7.50;1.00
7129;DHT22;3606;52.930;8.644;2024-01-25T04:08:26;7.50;99.90
7129;DHT22;3606;52.930;8.644;2024-01-25T04:10:51;7.50;99.90
7129;DHT22;3606;52.930;8.644;2024-01-25T04:13:17;7.60;99.90
7129;DHT22;3606;52.930;8.644;2024-01-25T04:15:42;7.60;1.00
7129;DHT22;3606;52.930;8.644;2024-01-25T04:18:08;7.50;1.00
7129;DHT22;3606;52.930;8.644;2024-01-25T04:20:34;7.60;40.50
7129;DHT22;3606;52.930;8.644;2024-01-25T04:23:00;7.60;99.90
7129;DHT22;3606;52.930;8.644;2024-01-25T04:25:25;7.50;1.00
7129;DHT22;3606;52.930;8.644;2024-01-25T04:27:51;7.50;1.00
7129;DHT22;3606;52.930;8.644;2024-01-25T04:30:17;7.60;1.00
7129;DHT22;3606;52.930;8.644;2024-01-25T04:32:43;7.60;1.00
7129;DHT22;3606;52.930;8.644;2024-01-25T04:35:09;7.50;1.00
7129;DHT22;3606;52.930;8.644;2024-01-25T04:37:35;7.50;1.00
7129;DHT22;3606;52.930;8.644;2024-01-25T04:40:01;7.50;1.00
7129;DHT22;3606;52.930;8.644;2024-01-25T04:42:27;7.50;1.10
7129;DHT22;3606;52.930;8.644;2024-01-25T04:44:53;7.50;1.00
7129;DHT22;3606;52.930;8.644;2024-01-25T04:47:18;7.40;1.00
7129;DHT22;3606;52.930;8.644;2024-01-25T04:49:44;7.40;99.90
7129;DHT22;3606;52.930;8.644;2024-01-25T04:52:10;7.40;99.90
7129;DHT22;3606;52.930;8.644;2024-01-25T04:54:35;7.40;1.00
7129;DHT22;3606;52.930;8.644;2024-01-25T04:57:01;7.50;99.90
7129;DHT22;3606;52.930;8.644;2024-01-25T04:59:34;7.40;99.90
7129;DHT22;3606;52.930;8.644;2024-01-25T05:02:00;7.40;99.90
7129;DHT22;3606;52.930;8.644;2024-01-25T05:04:26;7.40;1.00
7129;DHT22;3606;52.930;8.644;2024-01-25T05:06:53;7.40;99.90
7129;DHT22;3606;52.930;8.644;2024-01-25T05:09:18;7.30;1.00
7129;DHT22;3606;52.930;8.644;2024-01-25T05:11:44;7.30;99.90
7129;DHT22;3606;52.930;8.644;2024-01-25T05:14:10;7.30;1.00
7129;DHT22;3606;52.930;8.644;2024-01-25T05:16:35;7.20;1.00
7129;DHT22;3606;52.930;8.644;2024-01-25T05:19:01;7.10;1.00
7129;DHT22;3606;52.930;8.644;2024-01-25T05:21:27;7.10;1.00
7129;DHT22;3606;52.930;8.644;2024-01-25T05:23:52;7.10;1.00
7129;DHT22;3606;52.930;8.644;2024-01-25T05:26:18;7.10;1.00
7129;DHT22;3606;52.930;8.644;2024-01-25T05:28:44;7.10;1.00
7129;DHT22;3606;52.930;8.644;2024-01-25T05:31:10;7.10;1.00
7129;DHT22;3606;52.930;8.644;2024-01-25T05:33:41;7.10;1.00
7129;DHT22;3606;52.930;8.644;2024-01-25T05:36:07;7.10;1.00
7129;DHT22;3606;52.930;8.644;2024-01-25T05:38:33;7.10;1.00
7129;DHT22;3606;52.930;8.644;2024-01-25T05:40:59;7.10;1.00
7129;DHT22;3606;52.930;8.644;2024-01-25T05:43:25;7.10;1.00
7129;DHT22;3606;52.930;8.644;2024-01-25T05:45:50;7.10;1.00
7129;DHT22;3606;52.930;8.644;2024-01-25T05:48:16;7.10;79.00
7129;DHT22;3606;52.930;8.644;2024-01-25T05:50:42;7.00;99.90
7129;DHT22;3606;52.930;8.644;2024-01-25T05:53:07;6.90;99.90
7129;DHT22;3606;52.930;8.644;2024-01-25T05:55:33;7.00;99.90
7129;DHT22;3606;52.930;8.644;2024-01-25T05:57:58;7.00;99.90
7129;DHT22;3606;52.930;8.644;2024-01-25T06:00:24;7.00;99.90
7129;DHT22;3606;52.930;8.644;2024-01-25T06:02:50;6.90;99.90
7129;DHT22;3606;52.930;8.644;2024-01-25T06:05:15;6.90;99.90
7129;DHT22;3606;52.930;8.644;2024-01-25T06:07:41;6.90;99.90
7129;DHT22;3606;52.930;8.644;2024-01-25T06:10:07;6.90;99.90
7129;DHT22;3606;52.930;8.644;2024-01-25T06:12:34;6.90;1.00
7129;DHT22;3606;52.930;8.644;2024-01-25T06:14:59;7.00;99.90
7129;DHT22;3606;52.930;8.644;2024-01-25T06:17:25;6.90;99.90
7129;DHT22;3606;52.930;8.644;2024-01-25T06:19:51;6.80;1.00
7129;DHT22;3606;52.930;8.644;2024-01-25T06:22:16;6.80;1.00
7129;DHT22;3606;52.930;8.644;2024-01-25T06:24:43;6.80;1.00
7129;DHT22;3606;52.930;8.644;2024-01-25T06:27:11;6.80;1.00
7129;DHT22;3606;52.930;8.644;2024-01-25T06:29:37;6.90;1.00
7129;DHT22;3606;52.930;8.644;2024-01-25T06:32:02;6.80;1.00
7129;DHT22;3606;52.930;8.644;2024-01-25T06:34:28;6.80;1.00
7129;DHT22;3606;52.930;8.644;2024-01-25T06:36:54;6.80;1.00
7129;DHT22;3606;52.930;8.644;2024-01-25T06:39:19;6.80;1.00
7129;DHT22;3606;52.930;8.644;2024-01-25T06:41:45;6.80;1.00
7129;DHT22;3606;52.930;8.644;2024-01-25T06:44:10;6.80;1.00
7129;DHT22;3606;52.930;8.644;2024-01-25T06:46:36;6.70;1.00
7129;DHT22;3606;52.930;8.644;2024-01-25T06:49:02;6.80;1.00
7129;DHT22;3606;52.930;8.644;2024-01-25T06:51:28;6.80;1.00
7129;DHT22;3606;52.930;8.644;2024-01-25T06:53:53;6.80;1.00
7129;DHT22;3606;52.930;8.644;2024-01-25T06:56:19;6.80;1.00
7129;DHT22;3606;52.930;8.644;2024-01-25T06:58:45;6.90;1.00
7129;DHT22;3606;52.930;8.644;2024-01-25T07:01:10;6.80;1.00
7129;DHT22;3606;52.930;8.644;2024-01-25T07:03:36;6.80;1.00
7129;DHT22;3606;52.930;8.644;2024-01-25T07:06:01;6.80;1.00
7129;DHT22;3606;52.930;8.644;2024-01-25T07:08:27;6.80;1.00
7129;DHT22;3606;52.930;8.644;2024-01-25T07:10:53;6.80;1.00
7129;DHT22;3606;52.930;8.644;2024-01-25T07:13:18;6.80;1.00
7129;DHT22;3606;52.930;8.644;2024-01-25T07:15:44;6.80;1.00
7129;DHT22;3606;52.930;8.644;2024-01-25T07:18:10;6.80;1.00
7129;DHT22;3606;52.930;8.644;2024-01-25T07:20:36;6.80;1.00
7129;DHT22;3606;52.930;8.644;2024-01-25T07:23:02;6.80;1.00
7129;DHT22;3606;52.930;8.644;2024-01-25T07:25:27;6.80;1.00
7129;DHT22;3606;52.930;8.644;2024-01-25T07:27:53;6.80;1.00
7129;DHT22;3606;52.930;8.644;2024-01-25T07:30:18;6.70;1.00
7129;DHT22;3606;52.930;8.644;2024-01-25T07:32:44;6.80;1.00
7129;DHT22;3606;52.930;8.644;2024-01-25T07:35:12;6.80;1.00
7129;DHT22;3606;52.930;8.644;2024-01-25T07:37:39;6.80;1.00
7129;DHT22;3606;52.930;8.644;2024-01-25T07:40:06;6.80;23.30
7129;DHT22;3606;52.930;8.644;2024-01-25T07:42:32;6.80;1.00
7129;DHT22;3606;52.930;8.644;2024-01-25T07:44:58;6.80;1.00
7129;DHT22;3606;52.930;8.644;2024-01-25T07:47:23;6.80;1.00
7129;DHT22;3606;52.930;8.644;2024-01-25T07:49:49;6.80;1.00
7129;DHT22;3606;52.930;8.644;2024-01-25T07:52:14;6.80;1.00
7129;DHT22;3606;52.930;8.644;2024-01-25T07:54:40;6.90;1.00
7129;DHT22;3606;52.930;8.644;2024-01-25T07:57:06;6.80;1.00
7129;DHT22;3606;52.930;8.644;2024-01-25T07:59:31;6.90;1.00
7129;DHT22;3606;52.930;8.644;2024-01-25T08:01:57;6.80;1.00
7129;DHT22;3606;52.930;8.644;2024-01-25T08:04:22;6.90;1.00
7129;DHT22;3606;52.930;8.644;2024-01-25T08:06:48;6.90;1.00
7129;DHT22;3606;52.930;8.644;2024-01-25T08:09:14;6.90;1.00
7129;DHT22;3606;52.930;8.644;2024-01-25T08:11:39;7.00;1.00
7129;DHT22;3606;52.930;8.644;2024-01-25T08:14:05;7.00;1.00
7129;DHT22;3606;52.930;8.644;2024-01-25T08:16:31;7.00;1.00
7129;DHT22;3606;52.930;8.644;2024-01-25T08:18:57;7.00;1.00
7129;DHT22;3606;52.930;8.644;2024-01-25T08:21:24;7.00;1.00
7129;DHT22;3606;52.930;8.644;2024-01-25T08:23:49;7.00;1.00
7129;DHT22;3606;52.930;8.644;2024-01-25T08:26:15;7.00;1.00
7129;DHT22;3606;52.930;8.644;2024-01-25T08:28:41;7.00;1.00
7129;DHT22;3606;52.930;8.644;2024-01-25T08:31:09;7.00;1.00
7129;DHT22;3606;52.930;8.644;2024-01-25T08:33:35;7.00;1.00
7129;DHT22;3606;52.930;8.644;2024-01-25T08:36:01;7.00;1.00
7129;DHT22;3606;52.930;8.644;2024-01-25T08:38:27;7.10;1.00
7129;DHT22;3606;52.930;8.644;2024-01-25T08:40:53;7.10;1.00
7129;DHT22;3606;52.930;8.644;2024-01-25T08:43:19;7.10;1.00
7129;DHT22;3606;52.930;8.644;2024-01-25T08:45:44;7.10;1.00
7129;DHT22;3606;52.930;8.644;2024-01-25T08:48:10;7.10;1.00
7129;DHT22;3606;52.930;8.644;2024-01-25T08:50:36;7.10;1.00
7129;DHT22;3606;52.930;8.644;2024-01-25T08:53:02;7.20;1.00
7129;DHT22;3606;52.930;8.644;2024-01-25T08:55:28;7.20;1.00
7129;DHT22;3606;52.930;8.644;2024-01-25T08:57:53;7.10;99.90
7129;DHT22;3606;52.930;8.644;2024-01-25T09:00:19;7.10;1.00
7129;DHT22;3606;52.930;8.644;2024-01-25T09:02:45;7.10;1.00
7129;DHT22;3606;52.930;8.644;2024-01-25T09:05:11;7.10;1.00
7129;DHT22;3606;52.930;8.644;2024-01-25T09:07:37;7.10;1.00
7129;DHT22;3606;52.930;8.644;2024-01-25T09:10:04;7.10;1.00
7129;DHT22;3606;52.930;8.644;2024-01-25T09:12:33;7.20;1.00
7129;DHT22;3606;52.930;8.644;2024-01-25T09:15:00;7.20;1.00
7129;DHT22;3606;52.930;8.644;2024-01-25T09:17:25;7.30;99.90
7129;DHT22;3606;52.930;8.644;2024-01-25T09:19:51;7.30;1.00
7129;DHT22;3606;52.930;8.644;2024-01-25T09:22:18;7.30;99.90
7129;DHT22;3606;52.930;8.644;2024-01-25T09:24:45;7.30;99.90
7129;DHT22;3606;52.930;8.644;2024-01-25T09:27:11;7.30;99.90
7129;DHT22;3606;52.930;8.644;2024-01-25T09:29:38;7.40;99.90
7129;DHT22;3606;52.930;8.644;2024-01-25T09:32:06;7.40;99.90
7129;DHT22;3606;52.930;8.644;2024-01-25T09:34:31;7.30;99.90
7129;DHT22;3606;52.930;8.644;2024-01-25T09:36:57;7.30;99.90
7129;DHT22;3606;52.930;8.644;2024-01-25T09:39:23;7.30;99.90
7129;DHT22;3606;52.930;8.644;2024-01-25T09:41:48;7.40;99.90
7129;DHT22;3606;52.930;8.644;2024-01-25T09:44:14;7.40;99.90
7129;DHT22;3606;52.930;8.644;2024-01-25T09:46:41;7.40;90.30
7129;DHT22;3606;52.930;8.644;2024-01-25T09:49:07;7.30;99.90
7129;DHT22;3606;52.930;8.644;2024-01-25T09:51:37;7.40;99.90
7129;DHT22;3606;52.930;8.644;2024-01-25T09:54:06;7.50;1.00
7129;DHT22;3606;52.930;8.644;2024-01-25T09:56:33;7.50;8.00
7129;DHT22;3606;52.930;8.644;2024-01-25T09:58:59;7.50;1.00
7129;DHT22;3606;52.930;8.644;2024-01-25T10:01:27;7.60;1.00
7129;DHT22;3606;52.930;8.644;2024-01-25T10:03:53;7.60;1.00
7129;DHT22;3606;52.930;8.644;2024-01-25T10:06:21;7.60;99.90
7129;DHT22;3606;52.930;8.644;2024-01-25T10:08:47;7.60;1.00
7129;DHT22;3606;52.930;8.644;2024-01-25T10:11:13;7.60;99.90
7129;DHT22;3606;52.930;8.644;2024-01-25T10:13:45;7.50;99.90
7129;DHT22;3606;52.930;8.644;2024-01-25T10:16:12;7.40;1.00
7129;DHT22;3606;52.930;8.644;2024-01-25T10:18:39;7.50;99.90
7129;DHT22;3606;52.930;8.644;2024-01-25T10:21:05;7.40;1.00
7129;DHT22;3606;52.930;8.644;2024-01-25T10:23:30;7.40;33.70
7129;DHT22;3606;52.930;8.644;2024-01-25T10:25:56;7.40;99.90
7129;DHT22;3606;52.930;8.644;2024-01-25T10:28:24;7.40;99.90
7129;DHT22;3606;52.930;8.644;2024-01-25T10:30:50;7.50;99.90
7129;DHT22;3606;52.930;8.644;2024-01-25T10:33:16;7.50;99.90
7129;DHT22;3606;52.930;8.644;2024-01-25T10:35:44;7.40;1.00
7129;DHT22;3606;52.930;8.644;2024-01-25T10:38:18;7.40;90.00
7129;DHT22;3606;52.930;8.644;2024-01-25T10:40:46;7.50;99.90
7129;DHT22;3606;52.930;8.644;2024-01-25T10:43:12;7.60;99.90
7129;DHT22;3606;52.930;8.644;2024-01-25T10:45:37;7.70;99.90
7129;DHT22;3606;52.930;8.644;2024-01-25T10:48:04;7.90;1.00
7129;DHT22;3606;52.930;8.644;2024-01-25T10:50:30;8.10;1.00
7129;DHT22;3606;52.930;8.644;2024-01-25T10:52:56;8.30;99.90
7129;DHT22;3606;52.930;8.644;2024-01-25T10:55:22;8.40;1.00
7129;DHT22;3606;52.930;8.644;2024-01-25T10:57:48;8.40;1.00
7129;DHT22;3606;52.930;8.644;2024-01-25T11:00:15;8.40;99.90
7129;DHT22;3606;52.930;8.644;2024-01-25T11:02:42;8.40;99.90
7129;DHT22;3606;52.930;8.644;2024-01-25T11:05:13;8.30;55.90
7129;DHT22;3606;52.930;8.644;2024-01-25T11:07:50;8.20;99.90
7129;DHT22;3606;52.930;8.644;2024-01-25T11:10:18;8.20;1.00
7129;DHT22;3606;52.930;8.644;2024-01-25T11:15:29;8.20;1.00
7129;DHT22;3606;52.930;8.644;2024-01-25T11:17:55;8.30;1.00
7129;DHT22;3606;52.930;8.644;2024-01-25T11:20:26;8.30;1.00
7129;DHT22;3606;52.930;8.644;2024-01-25T11:23:02;8.20;1.00
7129;DHT22;3606;52.930;8.644;2024-01-25T11:25:29;8.20;99.90
7129;DHT22;3606;52.930;8.644;2024-01-25T11:27:55;8.30;99.90
7129;DHT22;3606;52.930;8.644;2024-01-25T11:30:21;8.20;99.90
7129;DHT22;3606;52.930;8.644;2024-01-25T11:32:47;8.30;1.00
7129;DHT22;3606;52.930;8.644;2024-01-25T11:35:14;8.40;99.90
7129;DHT22;3606;52.930;8.644;2024-01-25T11:37:49;8.50;99.90
7129;DHT22;3606;52.930;8.644;2024-01-25T11:40:16;8.60;99.90
7129;DHT22;3606;52.930;8.644;2024-01-25T11:42:43;8.60;1.00
7129;DHT22;3606;52.930;8.644;2024-01-25T11:45:12;8.60;1.00
7129;DHT22;3606;52.930;8.644;2024-01-25T11:47:40;8.60;99.90
7129;DHT22;3606;52.930;8.644;2024-01-25T11:50:07;8.60;99.90
7129;DHT22;3606;52.930;8.644;2024-01-25T11:52:33;8.50;95.20
7129;DHT22;3606;52.930;8.644;2024-01-25T11:55:06;8.40;1.00
7129;DHT22;3606;52.930;8.644;2024-01-25T12:00:00;8.60;99.90
7129;DHT22;3606;52.930;8.644;2024-01-25T12:02:26;8.70;99.90
7129;DHT22;3606;52.930;8.644;2024-01-25T12:04:52;8.80;1.00
7129;DHT22;3606;52.930;8.644;2024-01-25T12:07:20;8.90;99.90
7129;DHT22;3606;52.930;8.644;2024-01-25T12:09:59;8.80;99.90
7129;DHT22;3606;52.930;8.644;2024-01-25T12:12:25;9.00;1.00
7129;DHT22;3606;52.930;8.644;2024-01-25T12:14:51;9.10;99.90
7129;DHT22;3606;52.930;8.644;2024-01-25T12:17:18;9.10;99.90
7129;DHT22;3606;52.930;8.644;2024-01-25T12:19:43;9.10;1.00
7129;DHT22;3606;52.930;8.644;2024-01-25T12:22:09;9.30;54.40
7129;DHT22;3606;52.930;8.644;2024-01-25T12:24:35;9.50;1.00
7129;DHT22;3606;52.930;8.644;2024-01-25T12:27:00;9.50;1.00
7129;DHT22;3606;52.930;8.644;2024-01-25T12:29:26;9.30;99.90
7129;DHT22;3606;52.930;8.644;2024-01-25T12:31:52;9.40;99.90
7129;DHT22;3606;52.930;8.644;2024-01-25T12:34:17;9.40;99.90
7129;DHT22;3606;52.930;8.644;2024-01-25T12:36:43;9.50;1.00
7129;DHT22;3606;52.930;8.644;2024-01-25T12:39:08;9.20;99.90
7129;DHT22;3606;52.930;8.644;2024-01-25T12:41:35;9.00;99.90
7129;DHT22;3606;52.930;8.644;2024-01-25T12:44:01;8.70;1.00
7129;DHT22;3606;52.930;8.644;2024-01-25T12:46:26;8.70;99.90
7129;DHT22;3606;52.930;8.644;2024-01-25T12:48:52;8.80;1.00
7129;DHT22;3606;52.930;8.644;2024-01-25T12:51:20;8.70;1.00
7129;DHT22;3606;52.930;8.644;2024-01-25T12:53:48;8.60;1.00
7129;DHT22;3606;52.930;8.644;2024-01-25T12:56:14;8.50;1.00
7129;DHT22;3606;52.930;8.644;2024-01-25T12:58:39;8.50;1.00
7129;DHT22;3606;52.930;8.644;2024-01-25T13:01:05;8.30;1.00
7129;DHT22;3606;52.930;8.644;2024-01-25T13:03:31;8.30;1.00
7129;DHT22;3606;52.930;8.644;2024-01-25T13:05:56;8.40;99.90
7129;DHT22;3606;52.930;8.644;2024-01-25T13:08:22;8.40;1.00
7129;DHT22;3606;52.930;8.644;2024-01-25T13:10:47;8.30;99.90
7129;DHT22;3606;52.930;8.644;2024-01-25T13:13:13;8.30;99.90
7129;DHT22;3606;52.930;8.644;2024-01-25T13:15:39;8.20;99.90
7129;DHT22;3606;52.930;8.644;2024-01-25T13:18:04;8.10;1.00
7129;DHT22;3606;52.930;8.644;2024-01-25T13:20:30;8.10;1.00
7129;DHT22;3606;52.930;8.644;2024-01-25T13:22:56;8.30;1.00
7129;DHT22;3606;52.930;8.644;2024-01-25T13:25:21;8.70;99.90
7129;DHT22;3606;52.930;8.644;2024-01-25T13:27:47;9.20;1.00
7129;DHT22;3606;52.930;8.644;2024-01-25T13:30:12;9.40;99.90
7129;DHT22;3606;52.930;8.644;2024-01-25T13:32:39;9.80;11.30
7129;DHT22;3606;52.930;8.644;2024-01-25T13:35:05;10.20;99.90
7129;DHT22;3606;52.930;8.644;2024-01-25T13:37:31;10.40;99.90
7129;DHT22;3606;52.930;8.644;2024-01-25T13:39:57;10.40;99.90
7129;DHT22;3606;52.930;8.644;2024-01-25T13:42:23;10.20;99.90
7129;DHT22;3606;52.930;8.644;2024-01-25T13:44:48;9.70;1.00
7129;DHT22;3606;52.930;8.644;2024-01-25T13:47:14;9.20;99.90
7129;DHT22;3606;52.930;8.644;2024-01-25T13:49:39;8.90;99.90
7129;DHT22;3606;52.930;8.644;2024-01-25T13:52:05;8.80;1.00
7129;DHT22;3606;52.930;8.644;2024-01-25T13:54:31;8.90;1.00
7129;DHT22;3606;52.930;8.644;2024-01-25T13:56:56;8.90;99.90
7129;DHT22;3606;52.930;8.644;2024-01-25T13:59:22;9.00;1.00
7129;DHT22;3606;52.930;8.644;2024-01-25T14:01:49;9.30;99.90
7129;DHT22;3606;52.930;8.644;2024-01-25T14:04:16;9.60;1.00
7129;DHT22;3606;52.930;8.644;2024-01-25T14:06:42;10.20;99.90
7129;DHT22;3606;52.930;8.644;2024-01-25T14:09:07;10.60;99.90
7129;DHT22;3606;52.930;8.644;2024-01-25T14:11:33;10.80;99.90
7129;DHT22;3606;52.930;8.644;2024-01-25T14:13:58;11.10;1.00
7129;DHT22;3606;52.930;8.644;2024-01-25T14:16:24;11.30;1.00
7129;DHT22;3606;52.930;8.644;2024-01-25T14:18:49;11.50;1.00
7129;DHT22;3606;52.930;8.644;2024-01-25T14:21:15;11.40;1.00
7129;DHT22;3606;52.930;8.644;2024-01-25T14:23:41;11.20;1.00
7129;DHT22;3606;52.930;8.644;2024-01-25T14:26:06;11.20;1.00
7129;DHT22;3606;52.930;8.644;2024-01-25T14:28:32;11.00;1.00
7129;DHT22;3606;52.930;8.644;2024-01-25T14:30:58;10.70;1.00
7129;DHT22;3606;52.930;8.644;2024-01-25T14:33:24;10.50;1.00
7129;DHT22;3606;52.930;8.644;2024-01-25T14:35:50;10.60;1.00
7129;DHT22;3606;52.930;8.644;2024-01-25T14:38:15;10.70;1.00
7129;DHT22;3606;52.930;8.644;2024-01-25T14:40:41;10.70;1.00
7129;DHT22;3606;52.930;8.644;2024-01-25T14:43:06;10.80;1.00
7129;DHT22;3606;52.930;8.644;2024-01-25T14:45:32;10.80;1.00
7129;DHT22;3606;52.930;8.644;2024-01-25T14:47:59;10.80;1.00
7129;DHT22;3606;52.930;8.644;2024-01-25T14:50:25;10.70;1.00
7129;DHT22;3606;52.930;8.644;2024-01-25T14:52:50;10.40;99.90
7129;DHT22;3606;52.930;8.644;2024-01-25T14:55:16;10.00;1.00
7129;DHT22;3606;52.930;8.644;2024-01-25T14:57:42;9.50;99.90
7129;DHT22;3606;52.930;8.644;2024-01-25T15:00:08;8.90;54.30
7129;DHT22;3606;52.930;8.644;2024-01-25T15:02:34;8.50;1.00
7129;DHT22;3606;52.930;8.644;2024-01-25T15:05:00;8.20;1.00
7129;DHT22;3606;52.930;8.644;2024-01-25T15:07:26;7.90;1.00
7129;DHT22;3606;52.930;8.644;2024-01-25T15:09:51;7.70;1.00
7129;DHT22;3606;52.930;8.644;2024-01-25T15:12:17;7.50;1.00
7129;DHT22;3606;52.930;8.644;2024-01-25T15:14:45;7.40;99.90
7129;DHT22;3606;52.930;8.644;2024-01-25T15:17:10;7.20;13.10
7129;DHT22;3606;52.930;8.644;2024-01-25T15:19:36;7.10;1.00
7129;DHT22;3606;52.930;8.644;2024-01-25T15:22:03;7.10;99.90
7129;DHT22;3606;52.930;8.644;2024-01-25T15:24:29;7.00;1.00
7129;DHT22;3606;52.930;8.644;2024-01-25T15:26:57;6.90;1.00
7129;DHT22;3606;52.930;8.644;2024-01-25T15:29:22;6.90;1.00
7129;DHT22;3606;52.930;8.644;2024-01-25T15:31:48;6.80;65.00
7129;DHT22;3606;52.930;8.644;2024-01-25T15:34:14;6.80;1.00
7129;DHT22;3606;52.930;8.644;2024-01-25T15:36:39;6.70;55.10
7129;DHT22;3606;52.930;8.644;2024-01-25T15:39:09;6.50;99.90
7129;DHT22;3606;52.930;8.644;2024-01-25T15:41:36;6.50;1.00
7129;DHT22;3606;52.930;8.644;2024-01-25T15:44:01;6.40;1.00
7129;DHT22;3606;52.930;8.644;2024-01-25T15:46:27;6.30;1.00
7129;DHT22;3606;52.930;8.644;2024-01-25T15:48:53;6.20;1.00
7129;DHT22;3606;52.930;8.644;2024-01-25T15:51:20;6.10;1.00
7129;DHT22;3606;52.930;8.644;2024-01-25T15:53:48;6.00;1.00
7129;DHT22;3606;52.930;8.644;2024-01-25T15:56:14;5.80;41.40
7129;DHT22;3606;52.930;8.644;2024-01-25T15:58:39;5.80;99.90
7129;DHT22;3606;52.930;8.644;2024-01-25T16:01:05;5.80;99.90
7129;DHT22;3606;52.930;8.644;2024-01-25T16:03:31;5.80;99.90
7129;DHT22;3606;52.930;8.644;2024-01-25T16:05:56;5.80;99.90
7129;DHT22;3606;52.930;8.644;2024-01-25T16:08:22;5.80;99.90
7129;DHT22;3606;52.930;8.644;2024-01-25T16:10:48;5.70;99.90
7129;DHT22;3606;52.930;8.644;2024-01-25T16:13:15;5.70;99.90
7129;DHT22;3606;52.930;8.644;2024-01-25T16:15:41;5.70;99.90
7129;DHT22;3606;52.930;8.644;2024-01-25T16:18:06;5.70;99.90
7129;DHT22;3606;52.930;8.644;2024-01-25T16:20:32;5.80;99.90
7129;DHT22;3606;52.930;8.644;2024-01-25T16:22:58;5.80;99.90
7129;DHT22;3606;52.930;8.644;2024-01-25T16:25:24;5.80;99.90